Terminal Aerodrome Forecast
Issued by NWS

Home | Current Version | Previous Version | Text Only | Print | Product List | Glossary On
Versions: 1 2 3 4 5 6 7 8 9 10 11 12 13 14 15 16 17 18 19 20 21 22 23 24 25 26 27 28 29
000
FTUS44 KOUN 010523
TAFCSM
TAF
KCSM 010523Z 0106/0206 01006KT P6SM SCT050 OVC100
     FM011000 04006KT P6SM VCSH OVC025
     FM011800 05008KT P6SM BKN040
      TEMPO 0118/0122 4SM -TSRA OVC025CB
     FM012300 06007KT P6SM BKN100=

USA.gov is the U.S. government's official web portal to all federal, state and local government web resources and services.